sensor_id;sensor_type;location;lat;lon;timestamp;pressure;altitude;pressure_sealevel;temperature;humidity
6198;BME280;3132;42.622;23.328;2024-03-06T00:02:04;92525.56;;;6.90;98.15
6198;BME280;3132;42.622;23.328;2024-03-06T00:04:29;92520.09;;;6.76;98.93
6198;BME280;3132;42.622;23.328;2024-03-06T00:06:55;92518.00;;;6.63;99.63
6198;BME280;3132;42.622;23.328;2024-03-06T00:09:21;92473.72;;;5.98;100.00
6198;BME280;3132;42.622;23.328;2024-03-06T00:11:46;92514.34;;;6.44;100.00
6198;BME280;3132;42.622;23.328;2024-03-06T00:14:12;92511.94;;;6.32;100.00
6198;BME280;3132;42.622;23.328;2024-03-06T00:16:40;92515.34;;;6.38;100.00
6198;BME280;3132;42.622;23.328;2024-03-06T00:19:05;92501.47;;;6.02;100.00
6198;BME280;3132;42.622;23.328;2024-03-06T00:21:30;92519.13;;;6.10;100.00
6198;BME280;3132;42.622;23.328;2024-03-06T00:23:56;92510.25;;;5.96;100.00
6198;BME280;3132;42.622;23.328;2024-03-06T00:26:22;92506.06;;;5.85;100.00
6198;BME280;3132;42.622;23.328;2024-03-06T00:28:47;92490.66;;;5.69;100.00
6198;BME280;3132;42.622;23.328;2024-03-06T00:31:13;92506.56;;;5.82;100.00
6198;BME280;3132;42.622;23.328;2024-03-06T00:33:39;92512.03;;;5.86;99.75
6198;BME280;3132;42.622;23.328;2024-03-06T00:36:05;92503.22;;;5.82;99.81
6198;BME280;3132;42.622;23.328;2024-03-06T00:38:31;92493.84;;;5.81;99.54
6198;BME280;3132;42.622;23.328;2024-03-06T00:40:56;92511.53;;;5.89;99.77
6198;BME280;3132;42.622;23.328;2024-03-06T00:43:23;92516.44;;;5.90;100.00
6198;BME280;3132;42.622;23.328;2024-03-06T00:45:48;92497.03;;;5.88;99.22
6198;BME280;3132;42.622;23.328;2024-03-06T00:48:13;92519.03;;;5.90;98.88
6198;BME280;3132;42.622;23.328;2024-03-06T00:50:39;92510.88;;;5.72;100.00
6198;BME280;3132;42.622;23.328;2024-03-06T00:53:05;92521.88;;;5.89;99.92
6198;BME280;3132;42.622;23.328;2024-03-06T00:55:30;92526.59;;;5.97;100.00
6198;BME280;3132;42.622;23.328;2024-03-06T00:57:56;92486.13;;;5.86;99.63
6198;BME280;3132;42.622;23.328;2024-03-06T01:00:22;92515.75;;;6.05;100.00
6198;BME280;3132;42.622;23.328;2024-03-06T01:02:47;92516.75;;;5.99;100.00
6198;BME280;3132;42.622;23.328;2024-03-06T01:05:13;92515.72;;;6.00;100.00
6198;BME280;3132;42.622;23.328;2024-03-06T01:07:38;92525.06;;;6.06;100.00
6198;BME280;3132;42.622;23.328;2024-03-06T01:10:05;92515.78;;;6.20;100.00
6198;BME280;3132;42.622;23.328;2024-03-06T01:12:34;92526.13;;;6.10;100.00
6198;BME280;3132;42.622;23.328;2024-03-06T01:15:00;92498.16;;;6.07;100.00
6198;BME280;3132;42.622;23.328;2024-03-06T01:17:25;92503.31;;;6.12;100.00
6198;BME280;3132;42.622;23.328;2024-03-06T01:19:51;92520.97;;;6.20;100.00
6198;BME280;3132;42.622;23.328;2024-03-06T01:22:16;92526.13;;;6.15;100.00
6198;BME280;3132;42.622;23.328;2024-03-06T01:24:43;92523.75;;;5.98;100.00
6198;BME280;3132;42.622;23.328;2024-03-06T01:27:08;92524.50;;;5.94;100.00
6198;BME280;3132;42.622;23.328;2024-03-06T01:29:34;92522.97;;;6.03;100.00
6198;BME280;3132;42.622;23.328;2024-03-06T01:31:59;92503.75;;;5.89;100.00
6198;BME280;3132;42.622;23.328;2024-03-06T01:34:25;92520.34;;;5.88;100.00
6198;BME280;3132;42.622;23.328;2024-03-06T01:36:52;92513.00;;;5.80;100.00
6198;BME280;3132;42.622;23.328;2024-03-06T01:39:18;92495.78;;;5.59;100.00
6198;BME280;3132;42.622;23.328;2024-03-06T01:41:47;92511.44;;;5.74;100.00
6198;BME280;3132;42.622;23.328;2024-03-06T01:44:16;92517.91;;;5.76;100.00
6198;BME280;3132;42.622;23.328;2024-03-06T01:46:43;92517.34;;;5.69;100.00
6198;BME280;3132;42.622;23.328;2024-03-06T01:49:11;92494.50;;;5.56;100.00
6198;BME280;3132;42.622;23.328;2024-03-06T01:51:36;92510.06;;;5.61;100.00
6198;BME280;3132;42.622;23.328;2024-03-06T01:54:03;92492.09;;;5.45;100.00
6198;BME280;3132;42.622;23.328;2024-03-06T01:56:30;92514.16;;;5.52;100.00
6198;BME280;3132;42.622;23.328;2024-03-06T01:58:56;92514.91;;;5.48;100.00
6198;BME280;3132;42.622;23.328;2024-03-06T02:01:21;92509.66;;;5.38;100.00
6198;BME280;3132;42.622;23.328;2024-03-06T02:03:47;92488.31;;;5.21;100.00
6198;BME280;3132;42.622;23.328;2024-03-06T02:06:14;92511.56;;;5.52;100.00
6198;BME280;3132;42.622;23.328;2024-03-06T02:08:40;92517.53;;;5.58;100.00
6198;BME280;3132;42.622;23.328;2024-03-06T02:11:06;92523.25;;;5.60;100.00
6198;BME280;3132;42.622;23.328;2024-03-06T02:13:33;92519.03;;;5.49;100.00
6198;BME280;3132;42.622;23.328;2024-03-06T02:15:58;92527.06;;;5.47;100.00
6198;BME280;3132;42.622;23.328;2024-03-06T02:18:23;92518.72;;;5.40;100.00
6198;BME280;3132;42.622;23.328;2024-03-06T02:20:49;92524.69;;;5.41;100.00
6198;BME280;3132;42.622;23.328;2024-03-06T02:23:16;92529.81;;;5.31;100.00
6198;BME280;3132;42.622;23.328;2024-03-06T02:25:44;92520.97;;;5.27;100.00
6198;BME280;3132;42.622;23.328;2024-03-06T02:28:11;92525.34;;;5.26;100.00
6198;BME280;3132;42.622;23.328;2024-03-06T02:30:36;92501.72;;;5.13;100.00
6198;BME280;3132;42.622;23.328;2024-03-06T02:33:02;92529.97;;;5.19;100.00
6198;BME280;3132;42.622;23.328;2024-03-06T02:35:29;92532.50;;;5.14;100.00
6198;BME280;3132;42.622;23.328;2024-03-06T02:37:55;92539.06;;;5.27;100.00
6198;BME280;3132;42.622;23.328;2024-03-06T02:40:22;92505.13;;;5.18;100.00
6198;BME280;3132;42.622;23.328;2024-03-06T02:42:47;92530.56;;;5.31;100.00
6198;BME280;3132;42.622;23.328;2024-03-06T02:45:13;92534.47;;;5.34;99.73
6198;BME280;3132;42.622;23.328;2024-03-06T02:47:39;92508.91;;;5.06;100.00
6198;BME280;3132;42.622;23.328;2024-03-06T02:50:04;92522.84;;;5.00;100.00
6198;BME280;3132;42.622;23.328;2024-03-06T02:52:30;92541.16;;;4.93;100.00
6198;BME280;3132;42.622;23.328;2024-03-06T02:54:56;92523.78;;;4.93;100.00
6198;BME280;3132;42.622;23.328;2024-03-06T02:57:21;92538.97;;;5.12;100.00
6198;BME280;3132;42.622;23.328;2024-03-06T02:59:46;92519.78;;;5.08;100.00
6198;BME280;3132;42.622;23.328;2024-03-06T03:02:12;92539.53;;;5.19;100.00
6198;BME280;3132;42.622;23.328;2024-03-06T03:04:38;92524.19;;;5.07;100.00
6198;BME280;3132;42.622;23.328;2024-03-06T03:07:03;92535.34;;;5.13;100.00
6198;BME280;3132;42.622;23.328;2024-03-06T03:09:29;92537.63;;;5.09;100.00
6198;BME280;3132;42.622;23.328;2024-03-06T03:11:54;92538.88;;;5.02;100.00
6198;BME280;3132;42.622;23.328;2024-03-06T03:14:20;92546.00;;;4.89;100.00
6198;BME280;3132;42.622;23.328;2024-03-06T03:16:45;92491.84;;;4.73;100.00
6198;BME280;3132;42.622;23.328;2024-03-06T03:19:10;92527.13;;;4.89;100.00
6198;BME280;3132;42.622;23.328;2024-03-06T03:21:36;92549.16;;;4.91;100.00
6198;BME280;3132;42.622;23.328;2024-03-06T03:24:01;92538.81;;;4.91;100.00
6198;BME280;3132;42.622;23.328;2024-03-06T03:26:28;92535.66;;;4.89;100.00
6198;BME280;3132;42.622;23.328;2024-03-06T03:28:53;92524.59;;;4.67;100.00
6198;BME280;3132;42.622;23.328;2024-03-06T03:31:20;92553.09;;;4.72;100.00
6198;BME280;3132;42.622;23.328;2024-03-06T03:33:46;92550.88;;;4.86;100.00
6198;BME280;3132;42.622;23.328;2024-03-06T03:36:13;92555.38;;;4.69;100.00
6198;BME280;3132;42.622;23.328;2024-03-06T03:38:39;92554.38;;;4.70;100.00
6198;BME280;3132;42.622;23.328;2024-03-06T03:41:11;92540.59;;;4.64;100.00
6198;BME280;3132;42.622;23.328;2024-03-06T03:43:38;92548.50;;;4.79;100.00
6198;BME280;3132;42.622;23.328;2024-03-06T03:46:04;92542.94;;;4.66;100.00
6198;BME280;3132;42.622;23.328;2024-03-06T03:48:30;92556.91;;;4.65;100.00
6198;BME280;3132;42.622;23.328;2024-03-06T03:50:56;92538.88;;;4.48;100.00
6198;BME280;3132;42.622;23.328;2024-03-06T03:53:21;92553.97;;;4.56;100.00
6198;BME280;3132;42.622;23.328;2024-03-06T03:55:47;92552.09;;;4.52;100.00
6198;BME280;3132;42.622;23.328;2024-03-06T03:58:12;92555.25;;;4.54;100.00
6198;BME280;3132;42.622;23.328;2024-03-06T04:00:38;92564.72;;;4.70;100.00
6198;BME280;3132;42.622;23.328;2024-03-06T04:03:03;92544.50;;;4.40;100.00
6198;BME280;3132;42.622;23.328;2024-03-06T04:05:29;92556.28;;;4.31;100.00
6198;BME280;3132;42.622;23.328;2024-03-06T04:07:54;92571.91;;;4.41;100.00
6198;BME280;3132;42.622;23.328;2024-03-06T04:10:19;92569.84;;;4.65;100.00
6198;BME280;3132;42.622;23.328;2024-03-06T04:12:46;92556.66;;;4.18;100.00
6198;BME280;3132;42.622;23.328;2024-03-06T04:15:11;92571.66;;;4.43;100.00
6198;BME280;3132;42.622;23.328;2024-03-06T04:17:36;92573.78;;;4.24;100.00
6198;BME280;3132;42.622;23.328;2024-03-06T04:20:02;92577.72;;;4.32;100.00
6198;BME280;3132;42.622;23.328;2024-03-06T04:22:29;92587.59;;;4.35;100.00
6198;BME280;3132;42.622;23.328;2024-03-06T04:24:54;92590.47;;;4.38;100.00
6198;BME280;3132;42.622;23.328;2024-03-06T04:27:21;92590.81;;;4.25;100.00
6198;BME280;3132;42.622;23.328;2024-03-06T04:29:46;92577.66;;;4.05;100.00
6198;BME280;3132;42.622;23.328;2024-03-06T04:32:11;92592.50;;;4.15;100.00
6198;BME280;3132;42.622;23.328;2024-03-06T04:34:37;92588.41;;;4.19;100.00
6198;BME280;3132;42.622;23.328;2024-03-06T04:37:02;92588.13;;;4.15;100.00
6198;BME280;3132;42.622;23.328;2024-03-06T04:39:28;92598.66;;;4.30;100.00
6198;BME280;3132;42.622;23.328;2024-03-06T04:41:53;92567.16;;;4.12;100.00
6198;BME280;3132;42.622;23.328;2024-03-06T04:44:18;92598.09;;;4.28;100.00
6198;BME280;3132;42.622;23.328;2024-03-06T04:46:43;92597.69;;;4.36;100.00
6198;BME280;3132;42.622;23.328;2024-03-06T04:49:09;92601.22;;;4.30;100.00
6198;BME280;3132;42.622;23.328;2024-03-06T04:51:34;92606.41;;;4.30;100.00
6198;BME280;3132;42.622;23.328;2024-03-06T04:54:00;92606.09;;;4.27;100.00
6198;BME280;3132;42.622;23.328;2024-03-06T04:56:25;92603.91;;;4.19;100.00
6198;BME280;3132;42.622;23.328;2024-03-06T04:58:51;92611.16;;;4.17;100.00
6198;BME280;3132;42.622;23.328;2024-03-06T05:01:17;92594.44;;;4.24;100.00
6198;BME280;3132;42.622;23.328;2024-03-06T05:03:43;92611.75;;;4.45;100.00
6198;BME280;3132;42.622;23.328;2024-03-06T05:06:08;92602.44;;;4.44;100.00
6198;BME280;3132;42.622;23.328;2024-03-06T05:08:33;92606.63;;;4.50;100.00
6198;BME280;3132;42.622;23.328;2024-03-06T05:11:00;92595.09;;;4.36;100.00
6198;BME280;3132;42.622;23.328;2024-03-06T05:13:26;92575.69;;;4.34;100.00
6198;BME280;3132;42.622;23.328;2024-03-06T05:15:52;92564.56;;;4.33;100.00
6198;BME280;3132;42.622;23.328;2024-03-06T05:18:19;92618.34;;;4.58;100.00
6198;BME280;3132;42.622;23.328;2024-03-06T05:20:45;92623.38;;;4.91;100.00
6198;BME280;3132;42.622;23.328;2024-03-06T05:23:11;92612.41;;;5.11;100.00
6198;BME280;3132;42.622;23.328;2024-03-06T05:25:37;92603.22;;;5.25;100.00
6198;BME280;3132;42.622;23.328;2024-03-06T05:28:03;92630.06;;;5.45;100.00
6198;BME280;3132;42.622;23.328;2024-03-06T05:30:29;92631.41;;;5.53;100.00
6198;BME280;3132;42.622;23.328;2024-03-06T05:32:55;92619.50;;;5.52;100.00
6198;BME280;3132;42.622;23.328;2024-03-06T05:35:20;92630.06;;;5.77;100.00
6198;BME280;3132;42.622;23.328;2024-03-06T05:37:46;92633.88;;;6.01;100.00
6198;BME280;3132;42.622;23.328;2024-03-06T05:40:12;92627.22;;;6.15;100.00
6198;BME280;3132;42.622;23.328;2024-03-06T05:42:37;92627.53;;;6.23;98.73
6198;BME280;3132;42.622;23.328;2024-03-06T05:45:02;92635.34;;;6.28;98.50
6198;BME280;3132;42.622;23.328;2024-03-06T05:47:35;92621.84;;;6.26;98.35
6198;BME280;3132;42.622;23.328;2024-03-06T05:50:01;92642.09;;;6.34;98.99
6198;BME280;3132;42.622;23.328;2024-03-06T05:52:32;92636.44;;;6.47;98.92
6198;BME280;3132;42.622;23.328;2024-03-06T05:54:59;92629.59;;;6.78;97.44
6198;BME280;3132;42.622;23.328;2024-03-06T05:57:24;92612.53;;;6.97;96.33
6198;BME280;3132;42.622;23.328;2024-03-06T05:59:50;92642.91;;;7.12;96.11
6198;BME280;3132;42.622;23.328;2024-03-06T06:02:15;92659.28;;;7.27;96.16
6198;BME280;3132;42.622;23.328;2024-03-06T06:04:42;92655.09;;;7.01;96.30
6198;BME280;3132;42.622;23.328;2024-03-06T06:07:07;92650.44;;;7.13;96.43
6198;BME280;3132;42.622;23.328;2024-03-06T06:09:32;92656.94;;;7.16;97.11
6198;BME280;3132;42.622;23.328;2024-03-06T06:11:58;92657.00;;;7.36;95.39
6198;BME280;3132;42.622;23.328;2024-03-06T06:14:24;92649.75;;;7.68;95.01
6198;BME280;3132;42.622;23.328;2024-03-06T06:16:52;92633.38;;;7.57;93.61
6198;BME280;3132;42.622;23.328;2024-03-06T06:19:17;92640.13;;;7.48;95.46
6198;BME280;3132;42.622;23.328;2024-03-06T06:21:43;92634.41;;;7.81;94.46
6198;BME280;3132;42.622;23.328;2024-03-06T06:24:08;92575.16;;;7.03;94.04
6198;BME280;3132;42.622;23.328;2024-03-06T06:26:33;92628.97;;;7.58;94.02
6198;BME280;3132;42.622;23.328;2024-03-06T06:28:59;92660.41;;;7.86;93.50
6198;BME280;3132;42.622;23.328;2024-03-06T06:31:24;92649.22;;;7.91;92.31
6198;BME280;3132;42.622;23.328;2024-03-06T06:33:51;92635.97;;;7.92;91.61
6198;BME280;3132;42.622;23.328;2024-03-06T06:36:17;92660.91;;;8.03;92.02
6198;BME280;3132;42.622;23.328;2024-03-06T06:38:43;92661.41;;;8.15;91.58
6198;BME280;3132;42.622;23.328;2024-03-06T06:41:09;92657.81;;;7.96;91.52
6198;BME280;3132;42.622;23.328;2024-03-06T06:43:35;92636.72;;;7.43;93.16
6198;BME280;3132;42.622;23.328;2024-03-06T06:46:00;92659.84;;;7.49;93.94
6198;BME280;3132;42.622;23.328;2024-03-06T06:48:26;92662.75;;;7.98;92.63
6198;BME280;3132;42.622;23.328;2024-03-06T06:50:52;92666.34;;;8.22;90.94
6198;BME280;3132;42.622;23.328;2024-03-06T06:53:17;92656.22;;;7.75;91.29
6198;BME280;3132;42.622;23.328;2024-03-06T06:55:42;92670.25;;;7.69;91.69
6198;BME280;3132;42.622;23.328;2024-03-06T06:58:08;92654.16;;;8.02;89.83
6198;BME280;3132;42.622;23.328;2024-03-06T07:00:33;92680.66;;;8.40;89.09
6198;BME280;3132;42.622;23.328;2024-03-06T07:02:59;92674.88;;;8.73;88.22
6198;BME280;3132;42.622;23.328;2024-03-06T07:05:25;92679.13;;;9.12;86.87
6198;BME280;3132;42.622;23.328;2024-03-06T07:07:51;92682.00;;;9.11;86.79
6198;BME280;3132;42.622;23.328;2024-03-06T07:10:18;92677.41;;;8.83;88.26
6198;BME280;3132;42.622;23.328;2024-03-06T07:12:44;92660.72;;;8.89;87.10
6198;BME280;3132;42.622;23.328;2024-03-06T07:15:09;92655.78;;;8.87;87.21
6198;BME280;3132;42.622;23.328;2024-03-06T07:17:35;92666.25;;;8.77;87.98
6198;BME280;3132;42.622;23.328;2024-03-06T07:20:00;92666.06;;;8.49;89.94
6198;BME280;3132;42.622;23.328;2024-03-06T07:22:25;92648.13;;;8.22;91.24
6198;BME280;3132;42.622;23.328;2024-03-06T07:24:51;92646.84;;;8.40;89.41
6198;BME280;3132;42.622;23.328;2024-03-06T07:27:16;92666.50;;;8.81;87.19
6198;BME280;3132;42.622;23.328;2024-03-06T07:29:42;92685.63;;;9.15;86.22
6198;BME280;3132;42.622;23.328;2024-03-06T07:32:07;92683.25;;;8.30;89.51
6198;BME280;3132;42.622;23.328;2024-03-06T07:34:33;92687.28;;;8.86;88.34
6198;BME280;3132;42.622;23.328;2024-03-06T07:36:59;92689.59;;;9.07;86.33
6198;BME280;3132;42.622;23.328;2024-03-06T07:39:27;92663.56;;;8.97;86.11
6198;BME280;3132;42.622;23.328;2024-03-06T07:41:52;92658.78;;;8.46;88.22
6198;BME280;3132;42.622;23.328;2024-03-06T07:44:18;92666.47;;;8.91;87.00
6198;BME280;3132;42.622;23.328;2024-03-06T07:46:45;92661.81;;;8.83;87.72
6198;BME280;3132;42.622;23.328;2024-03-06T07:49:10;92683.06;;;9.05;87.71
6198;BME280;3132;42.622;23.328;2024-03-06T07:51:36;92665.13;;;8.98;87.91
6198;BME280;3132;42.622;23.328;2024-03-06T07:54:01;92659.84;;;8.45;89.87
6198;BME280;3132;42.622;23.328;2024-03-06T07:56:29;92681.16;;;9.25;87.37
6198;BME280;3132;42.622;23.328;2024-03-06T07:58:54;92685.47;;;8.91;89.11
6198;BME280;3132;42.622;23.328;2024-03-06T08:01:20;92676.06;;;8.95;89.06
6198;BME280;3132;42.622;23.328;2024-03-06T08:03:49;92686.13;;;9.22;87.65
6198;BME280;3132;42.622;23.328;2024-03-06T08:06:14;92658.66;;;8.91;87.63
6198;BME280;3132;42.622;23.328;2024-03-06T08:08:43;92685.41;;;9.06;87.14
6198;BME280;3132;42.622;23.328;2024-03-06T08:11:10;92689.09;;;8.90;86.45
6198;BME280;3132;42.622;23.328;2024-03-06T08:13:36;92694.44;;;9.24;85.99
6198;BME280;3132;42.622;23.328;2024-03-06T08:16:02;92676.94;;;8.76;85.68
6198;BME280;3132;42.622;23.328;2024-03-06T08:18:27;92694.00;;;9.12;85.28
6198;BME280;3132;42.622;23.328;2024-03-06T08:20:52;92680.47;;;9.58;81.91
6198;BME280;3132;42.622;23.328;2024-03-06T08:23:18;92679.41;;;9.59;81.47
6198;BME280;3132;42.622;23.328;2024-03-06T08:25:43;92690.00;;;9.73;81.96
6198;BME280;3132;42.622;23.328;2024-03-06T08:28:08;92695.44;;;9.76;82.19
6198;BME280;3132;42.622;23.328;2024-03-06T08:30:35;92695.97;;;9.35;84.07
6198;BME280;3132;42.622;23.328;2024-03-06T08:33:00;92666.19;;;9.46;83.05
6198;BME280;3132;42.622;23.328;2024-03-06T08:35:25;92674.00;;;9.46;83.33
6198;BME280;3132;42.622;23.328;2024-03-06T08:37:51;92687.50;;;9.92;80.46
6198;BME280;3132;42.622;23.328;2024-03-06T08:40:17;92694.34;;;9.82;81.96
6198;BME280;3132;42.622;23.328;2024-03-06T08:42:43;92686.56;;;9.77;80.77
6198;BME280;3132;42.622;23.328;2024-03-06T08:45:09;92660.59;;;9.19;83.51
6198;BME280;3132;42.622;23.328;2024-03-06T08:47:35;92696.38;;;9.96;81.00
6198;BME280;3132;42.622;23.328;2024-03-06T08:50:01;92694.19;;;10.13;79.11
6198;BME280;3132;42.622;23.328;2024-03-06T08:52:27;92660.22;;;9.79;78.76
6198;BME280;3132;42.622;23.328;2024-03-06T08:54:52;92692.16;;;10.00;79.54
6198;BME280;3132;42.622;23.328;2024-03-06T08:57:18;92688.84;;;9.89;80.27
6198;BME280;3132;42.622;23.328;2024-03-06T08:59:46;92690.34;;;9.95;78.90
6198;BME280;3132;42.622;23.328;2024-03-06T09:02:18;92693.34;;;9.35;81.55
6198;BME280;3132;42.622;23.328;2024-03-06T09:04:45;92694.94;;;9.74;81.21
6198;BME280;3132;42.622;23.328;2024-03-06T09:07:11;92675.19;;;10.02;78.85
6198;BME280;3132;42.622;23.328;2024-03-06T09:09:38;92693.81;;;10.24;79.27
6198;BME280;3132;42.622;23.328;2024-03-06T09:12:08;92684.84;;;10.02;80.78
6198;BME280;3132;42.622;23.328;2024-03-06T09:14:36;92697.94;;;10.30;77.52
6198;BME280;3132;42.622;23.328;2024-03-06T09:17:02;92695.06;;;10.32;78.84
6198;BME280;3132;42.622;23.328;2024-03-06T09:19:28;92705.41;;;10.70;76.25
6198;BME280;3132;42.622;23.328;2024-03-06T09:21:53;92697.78;;;10.17;77.77
6198;BME280;3132;42.622;23.328;2024-03-06T09:24:21;92690.22;;;10.49;78.14
6198;BME280;3132;42.622;23.328;2024-03-06T09:26:48;92702.78;;;10.70;76.99
6198;BME280;3132;42.622;23.328;2024-03-06T09:29:14;92695.66;;;10.52;77.34
6198;BME280;3132;42.622;23.328;2024-03-06T09:31:39;92704.63;;;10.41;77.56
6198;BME280;3132;42.622;23.328;2024-03-06T09:34:04;92690.47;;;10.19;78.77
6198;BME280;3132;42.622;23.328;2024-03-06T09:36:30;92677.31;;;10.57;76.71
6198;BME280;3132;42.622;23.328;2024-03-06T09:38:56;92684.84;;;10.87;74.38
6198;BME280;3132;42.622;23.328;2024-03-06T09:41:22;92699.59;;;10.78;76.62
6198;BME280;3132;42.622;23.328;2024-03-06T09:43:47;92693.25;;;10.84;75.81
6198;BME280;3132;42.622;23.328;2024-03-06T09:46:14;92698.06;;;11.19;74.08
6198;BME280;3132;42.622;23.328;2024-03-06T09:48:47;92700.44;;;11.16;73.21
6198;BME280;3132;42.622;23.328;2024-03-06T09:51:12;92667.78;;;10.95;73.06
6198;BME280;3132;42.622;23.328;2024-03-06T09:53:39;92701.56;;;11.33;72.67
6198;BME280;3132;42.622;23.328;2024-03-06T09:56:05;92701.22;;;11.40;72.68
6198;BME280;3132;42.622;23.328;2024-03-06T09:58:31;92678.84;;;10.87;72.79
6198;BME280;3132;42.622;23.328;2024-03-06T10:00:58;92688.97;;;10.93;73.39
6198;BME280;3132;42.622;23.328;2024-03-06T10:03:25;92687.91;;;10.94;71.91
6198;BME280;3132;42.622;23.328;2024-03-06T10:05:50;92685.66;;;10.88;73.72
6198;BME280;3132;42.622;23.328;2024-03-06T10:08:16;92680.63;;;11.33;70.96
6198;BME280;3132;42.622;23.328;2024-03-06T10:10:42;92680.66;;;11.10;68.13
6198;BME280;3132;42.622;23.328;2024-03-06T10:13:08;92683.47;;;11.37;68.53
6198;BME280;3132;42.622;23.328;2024-03-06T10:15:33;92669.50;;;11.04;68.10
6198;BME280;3132;42.622;23.328;2024-03-06T10:20:37;92681.94;;;11.55;67.60
6198;BME280;3132;42.622;23.328;2024-03-06T10:23:03;92639.38;;;11.30;67.85
6198;BME280;3132;42.622;23.328;2024-03-06T10:25:28;92677.53;;;11.31;70.46
6198;BME280;3132;42.622;23.328;2024-03-06T10:30:28;92656.28;;;11.57;69.93
6198;BME280;3132;42.622;23.328;2024-03-06T10:32:53;92673.72;;;11.43;71.26
6198;BME280;3132;42.622;23.328;2024-03-06T10:35:20;92656.38;;;11.52;70.56
6198;BME280;3132;42.622;23.328;2024-03-06T10:37:46;92666.66;;;11.62;70.54
6198;BME280;3132;42.622;23.328;2024-03-06T10:40:14;92646.31;;;11.21;70.07
6198;BME280;3132;42.622;23.328;2024-03-06T10:42:42;92629.56;;;11.41;68.75
6198;BME280;3132;42.622;23.328;2024-03-06T10:45:13;92666.56;;;11.72;66.38
6198;BME280;3132;42.622;23.328;2024-03-06T10:47:39;92642.31;;;11.85;61.90
6198;BME280;3132;42.622;23.328;2024-03-06T10:50:05;92654.06;;;11.87;64.08
6198;BME280;3132;42.622;23.328;2024-03-06T10:52:35;92629.22;;;11.29;65.19
6198;BME280;3132;42.622;23.328;2024-03-06T10:55:03;92625.56;;;11.49;63.47
6198;BME280;3132;42.622;23.328;2024-03-06T10:57:29;92630.03;;;11.67;64.46
6198;BME280;3132;42.622;23.328;2024-03-06T10:59:56;92627.50;;;12.12;61.56
6198;BME280;3132;42.622;23.328;2024-03-06T11:02:25;92643.56;;;12.06;60.13
6198;BME280;3132;42.622;23.328;2024-03-06T11:04:53;92636.22;;;11.52;64.20
6198;BME280;3132;42.622;23.328;2024-03-06T11:07:19;92627.25;;;11.77;63.20
6198;BME280;3132;42.622;23.328;2024-03-06T11:09:45;92624.66;;;12.09;63.69
6198;BME280;3132;42.622;23.328;2024-03-06T11:12:32;92608.34;;;12.44;62.45
6198;BME280;3132;42.622;23.328;2024-03-06T11:14:57;92622.44;;;12.75;60.92
6198;BME280;3132;42.622;23.328;2024-03-06T11:17:25;92610.59;;;12.05;61.51
6198;BME280;3132;42.622;23.328;2024-03-06T11:28:18;92604.75;;;12.67;59.14
6198;BME280;3132;42.622;23.328;2024-03-06T11:30:45;92607.66;;;12.52;57.34
6198;BME280;3132;42.622;23.328;2024-03-06T11:33:14;92616.97;;;12.31;57.75
6198;BME280;3132;42.622;23.328;2024-03-06T11:35:41;92598.31;;;11.87;60.24
6198;BME280;3132;42.622;23.328;2024-03-06T11:38:09;92584.53;;;12.00;61.16
6198;BME280;3132;42.622;23.328;2024-03-06T11:40:43;92600.91;;;12.64;57.35
6198;BME280;3132;42.622;23.328;2024-03-06T11:43:24;92580.78;;;12.33;57.35
6198;BME280;3132;42.622;23.328;2024-03-06T11:45:50;92572.75;;;12.43;58.16
6198;BME280;3132;42.622;23.328;2024-03-06T11:48:16;92592.25;;;12.50;58.61
6198;BME280;3132;42.622;23.328;2024-03-06T11:50:42;92567.13;;;12.63;56.77
6198;BME280;3132;42.622;23.328;2024-03-06T11:53:08;92591.97;;;12.65;57.76
6198;BME280;3132;42.622;23.328;2024-03-06T11:55:33;92574.81;;;12.73;56.42
6198;BME280;3132;42.622;23.328;2024-03-06T11:57:59;92590.03;;;12.71;57.02
6198;BME280;3132;42.622;23.328;2024-03-06T12:00:24;92584.00;;;12.70;55.64
6198;BME280;3132;42.622;23.328;2024-03-06T12:02:50;92592.34;;;12.86;54.02
6198;BME280;3132;42.622;23.328;2024-03-06T12:05:17;92593.94;;;13.01;53.80
6198;BME280;3132;42.622;23.328;2024-03-06T12:07:49;92583.91;;;13.16;54.12
6198;BME280;3132;42.622;23.328;2024-03-06T12:10:16;92579.44;;;13.17;53.67
6198;BME280;3132;42.622;23.328;2024-03-06T12:12:42;92583.97;;;13.38;52.90
6198;BME280;3132;42.622;23.328;2024-03-06T12:15:11;92580.44;;;13.43;54.00
6198;BME280;3132;42.622;23.328;2024-03-06T12:18:03;92561.50;;;13.10;54.16
6198;BME280;3132;42.622;23.328;2024-03-06T12:20:30;92578.84;;;13.55;53.36
6198;BME280;3132;42.622;23.328;2024-03-06T12:22:57;92576.00;;;13.65;52.63
6198;BME280;3132;42.622;23.328;2024-03-06T12:25:24;92551.78;;;13.46;52.54
6198;BME280;3132;42.622;23.328;2024-03-06T12:27:51;92571.81;;;14.08;50.97
6198;BME280;3132;42.622;23.328;2024-03-06T12:30:25;92549.66;;;14.23;50.15
6198;BME280;3132;42.622;23.328;2024-03-06T12:32:57;92569.13;;;14.52;48.99
6198;BME280;3132;42.622;23.328;2024-03-06T12:35:26;92561.66;;;14.46;49.97
6198;BME280;3132;42.622;23.328;2024-03-06T12:37:52;92540.78;;;13.88;50.57
6198;BME280;3132;42.622;23.328;2024-03-06T12:40:19;92564.53;;;14.27;49.69
6198;BME280;3132;42.622;23.328;2024-03-06T12:42:44;92566.09;;;14.28;50.03
6198;BME280;3132;42.622;23.328;2024-03-06T12:45:12;92563.78;;;14.35;49.83
6198;BME280;3132;42.622;23.328;2024-03-06T12:47:44;92559.50;;;14.17;49.02
6198;BME280;3132;42.622;23.328;2024-03-06T12:50:14;92540.56;;;13.98;48.61
6198;BME280;3132;42.622;23.328;2024-03-06T12:52:40;92556.63;;;13.75;51.62
6198;BME280;3132;42.622;23.328;2024-03-06T12:55:07;92552.03;;;13.58;52.51
6198;BME280;3132;42.622;23.328;2024-03-06T12:57:33;92557.75;;;13.60;50.92
6198;BME280;3132;42.622;23.328;2024-03-06T12:59:59;92550.53;;;13.66;52.01
6198;BME280;3132;42.622;23.328;2024-03-06T13:02:24;92558.75;;;13.73;50.55
6198;BME280;3132;42.622;23.328;2024-03-06T13:04:50;92555.72;;;14.01;53.49
6198;BME280;3132;42.622;23.328;2024-03-06T13:07:15;92542.97;;;13.86;55.98
6198;BME280;3132;42.622;23.328;2024-03-06T13:09:41;92556.19;;;13.81;57.66
6198;BME280;3132;42.622;23.328;2024-03-06T13:12:06;92565.50;;;13.87;57.27
6198;BME280;3132;42.622;23.328;2024-03-06T13:14:32;92559.34;;;13.12;59.98
6198;BME280;3132;42.622;23.328;2024-03-06T13:16:58;92560.22;;;13.21;59.96
6198;BME280;3132;42.622;23.328;2024-03-06T13:19:23;92559.94;;;13.09;61.20
6198;BME280;3132;42.622;23.328;2024-03-06T13:21:49;92564.78;;;12.75;61.12
6198;BME280;3132;42.622;23.328;2024-03-06T13:24:14;92553.56;;;12.47;62.01